createdAt,value
2018-05-23T00:00:07.682Z,1001.39
2018-05-23T00:00:48.202Z,1001.38
2018-05-23T00:01:28.736Z,1001.35
2018-05-23T00:02:09.254Z,1001.35
2018-05-23T00:02:49.784Z,1001.38
2018-05-23T00:03:30.301Z,1001.32
2018-05-23T00:04:10.879Z,1001.36
2018-05-23T00:04:51.356Z,1001.35
2018-05-23T00:05:31.883Z,1001.38
2018-05-23T00:06:12.400Z,1001.33
2018-05-23T00:06:52.919Z,1001.3
2018-05-23T00:07:33.432Z,1001.31
2018-05-23T00:08:13.957Z,1001.3
2018-05-23T00:08:54.492Z,1001.29
2018-05-23T00:09:35.020Z,1001.28
2018-05-23T00:10:15.547Z,1001.33
2018-05-23T00:10:56.066Z,1001.3
2018-05-23T00:11:36.665Z,1001.3
2018-05-23T00:12:17.102Z,1001.34
2018-05-23T00:12:57.631Z,1001.33
2018-05-23T00:13:38.157Z,1001.36
2018-05-23T00:14:18.669Z,1001.32
2018-05-23T00:14:59.201Z,1001.33
2018-05-23T00:15:39.722Z,1001.34
2018-05-23T00:16:20.248Z,1001.33
2018-05-23T00:17:00.764Z,1001.36
2018-05-23T00:17:41.290Z,1001.34
2018-05-23T00:18:21.825Z,1001.38
2018-05-23T00:19:02.341Z,1001.39
2018-05-23T00:19:42.864Z,1001.39
2018-05-23T00:20:23.397Z,1001.38
2018-05-23T00:21:03.922Z,1001.36
2018-05-23T00:21:44.439Z,1001.36
2018-05-23T00:22:24.954Z,1001.37
2018-05-23T00:23:05.522Z,1001.32
2018-05-23T00:23:46.062Z,1001.34
2018-05-23T00:24:26.583Z,1001.3
2018-05-23T00:25:07.125Z,1001.28
2018-05-23T00:25:47.655Z,1001.3
2018-05-23T00:26:28.171Z,1001.29
2018-05-23T00:27:08.708Z,1001.31
2018-05-23T00:27:49.229Z,1001.28
2018-05-23T00:28:29.748Z,1001.33
2018-05-23T00:29:10.272Z,1001.34
2018-05-23T00:29:50.781Z,1001.39
2018-05-23T00:30:31.317Z,1001.39
2018-05-23T00:31:11.835Z,1001.39
2018-05-23T00:31:52.365Z,1001.4
2018-05-23T00:32:32.890Z,1001.48
2018-05-23T00:33:13.410Z,1001.52
2018-05-23T00:33:53.929Z,1001.5
2018-05-23T00:34:34.458Z,1001.51
2018-05-23T00:35:14.988Z,1001.54
2018-05-23T00:35:55.575Z,1001.52
2018-05-23T00:36:36.138Z,1001.47
2018-05-23T00:37:16.639Z,1001.49
2018-05-23T00:37:57.171Z,1001.5
2018-05-23T00:38:37.698Z,1001.52
2018-05-23T00:39:18.221Z,1001.52
2018-05-23T00:39:58.742Z,1001.59
2018-05-23T00:40:39.266Z,1001.53
2018-05-23T00:41:19.794Z,1001.56
2018-05-23T00:42:00.316Z,1001.56
2018-05-23T00:42:40.827Z,1001.5
2018-05-23T00:43:21.348Z,1001.52
2018-05-23T00:44:01.861Z,1001.47
2018-05-23T00:44:42.376Z,1001.48
2018-05-23T00:45:22.896Z,1001.55
2018-05-23T00:46:03.424Z,1001.54
2018-05-23T00:46:43.949Z,1001.58
2018-05-23T00:47:24.472Z,1001.6
2018-05-23T00:48:05.000Z,1001.59
2018-05-23T00:48:45.510Z,1001.64
2018-05-23T00:49:26.044Z,1001.63
2018-05-23T00:50:06.576Z,1001.62
2018-05-23T00:50:47.118Z,1001.65
2018-05-23T00:51:27.649Z,1001.62
2018-05-23T00:52:08.185Z,1001.62
2018-05-23T00:52:48.704Z,1001.6
2018-05-23T00:53:29.237Z,1001.59
2018-05-23T00:54:09.769Z,1001.64
2018-05-23T00:54:50.299Z,1001.63
2018-05-23T00:55:30.824Z,1001.64
2018-05-23T00:56:11.347Z,1001.68
2018-05-23T00:56:51.860Z,1001.64
2018-05-23T00:57:32.390Z,1001.68
2018-05-23T00:58:12.928Z,1001.7
2018-05-23T00:58:53.450Z,1001.71
2018-05-23T00:59:33.991Z,1001.71
2018-05-23T01:00:14.510Z,1001.64
2018-05-23T01:00:55.031Z,1001.69
2018-05-23T01:01:35.549Z,1001.65
2018-05-23T01:02:16.077Z,1001.68
2018-05-23T01:02:56.594Z,1001.66
2018-05-23T01:03:37.113Z,1001.65
2018-05-23T01:04:17.644Z,1001.66
2018-05-23T01:04:58.181Z,1001.68
2018-05-23T01:05:38.712Z,1001.63
2018-05-23T01:06:19.230Z,1001.65
2018-05-23T01:06:59.754Z,1001.69
2018-05-23T01:07:40.280Z,1001.74
2018-05-23T01:08:20.807Z,1001.75
2018-05-23T01:09:01.331Z,1001.77
2018-05-23T01:09:41.862Z,1001.75
2018-05-23T01:10:22.396Z,1001.75
2018-05-23T01:11:02.940Z,1001.77
2018-05-23T01:11:43.468Z,1001.76
2018-05-23T01:12:23.987Z,1001.75
2018-05-23T01:13:04.498Z,1001.77
2018-05-23T01:13:45.031Z,1001.8
2018-05-23T01:14:25.596Z,1001.78
2018-05-23T01:15:06.137Z,1001.75
2018-05-23T01:15:46.656Z,1001.8
2018-05-23T01:16:27.176Z,1001.77
2018-05-23T01:17:07.690Z,1001.81
2018-05-23T01:17:48.210Z,1001.81
2018-05-23T01:18:28.743Z,1001.81
2018-05-23T01:19:09.292Z,1001.82
2018-05-23T01:19:49.875Z,1001.82
2018-05-23T01:20:30.406Z,1001.88
2018-05-23T01:21:10.922Z,1001.84
2018-05-23T01:21:51.448Z,1001.82
2018-05-23T01:22:31.979Z,1001.83
2018-05-23T01:23:12.510Z,1001.82
2018-05-23T01:23:53.031Z,1001.82
2018-05-23T01:24:33.549Z,1001.79
2018-05-23T01:25:14.065Z,1001.79
2018-05-23T01:25:54.586Z,1001.8
2018-05-23T01:26:35.115Z,1001.81
2018-05-23T01:27:15.643Z,1001.81
2018-05-23T01:27:56.174Z,1001.82
2018-05-23T01:28:36.681Z,1001.8
2018-05-23T01:29:17.201Z,1001.79
2018-05-23T01:29:57.723Z,1001.79
2018-05-23T01:30:38.263Z,1001.81
2018-05-23T01:31:18.789Z,1001.82
2018-05-23T01:31:59.343Z,1001.84
2018-05-23T01:32:39.872Z,1001.79
2018-05-23T01:33:20.394Z,1001.8
2018-05-23T01:34:00.919Z,1001.79
2018-05-23T01:34:41.438Z,1001.76
2018-05-23T01:35:21.948Z,1001.8
2018-05-23T01:36:02.476Z,1001.81
2018-05-23T01:36:43.000Z,1001.74
2018-05-23T01:37:23.501Z,1001.78
2018-05-23T01:38:04.029Z,1001.81
2018-05-23T01:38:44.537Z,1001.75
2018-05-23T01:39:25.061Z,1001.75
2018-05-23T01:40:05.590Z,1001.79
2018-05-23T01:40:46.110Z,1001.83
2018-05-23T01:41:26.624Z,1001.8
2018-05-23T01:42:07.146Z,1001.8
2018-05-23T01:42:47.674Z,1001.82
2018-05-23T01:43:28.196Z,1001.8
2018-05-23T01:44:08.720Z,1001.83
2018-05-23T01:44:49.238Z,1001.8
2018-05-23T01:45:29.767Z,1001.86
2018-05-23T01:46:10.293Z,1001.84
2018-05-23T01:46:50.816Z,1001.81
2018-05-23T01:47:31.326Z,1001.83
2018-05-23T01:48:11.880Z,1001.89
2018-05-23T01:48:52.412Z,1001.84
2018-05-23T01:49:32.908Z,1001.8
2018-05-23T01:50:13.425Z,1001.87
2018-05-23T01:50:53.956Z,1001.85
2018-05-23T01:51:34.485Z,1001.84
2018-05-23T01:52:14.989Z,1001.84
2018-05-23T01:52:55.512Z,1001.84
2018-05-23T01:53:36.037Z,1001.85
2018-05-23T01:54:16.564Z,1001.83
2018-05-23T01:54:57.087Z,1001.87
2018-05-23T01:55:37.611Z,1001.86
2018-05-23T01:56:18.143Z,1001.86
2018-05-23T01:56:58.661Z,1001.85
2018-05-23T01:57:39.199Z,1001.84
2018-05-23T01:58:19.719Z,1001.87
2018-05-23T01:59:00.249Z,1001.85
2018-05-23T01:59:40.753Z,1001.85
2018-05-23T02:00:21.276Z,1001.89
2018-05-23T02:01:01.805Z,1001.89
2018-05-23T02:01:42.344Z,1001.9
2018-05-23T02:02:22.865Z,1001.9
2018-05-23T02:03:03.392Z,1001.86
2018-05-23T02:03:43.906Z,1001.85
2018-05-23T02:04:24.451Z,1001.87
2018-05-23T02:05:04.962Z,1001.91
2018-05-23T02:05:45.492Z,1001.9
2018-05-23T02:06:26.011Z,1001.84
2018-05-23T02:07:06.528Z,1001.91
2018-05-23T02:07:47.043Z,1001.9
2018-05-23T02:08:27.577Z,1001.89
2018-05-23T02:09:08.087Z,1001.91
2018-05-23T02:09:48.609Z,1001.92
2018-05-23T02:10:29.163Z,1001.94
2018-05-23T02:11:09.694Z,1001.92
2018-05-23T02:11:50.264Z,1001.94
2018-05-23T02:12:30.794Z,1001.94
2018-05-23T02:13:11.316Z,1001.91
2018-05-23T02:13:51.840Z,1001.93
2018-05-23T02:14:32.366Z,1001.95
2018-05-23T02:15:12.883Z,1001.94
2018-05-23T02:15:53.388Z,1001.89
2018-05-23T02:16:33.909Z,1001.94
2018-05-23T02:17:14.428Z,1001.92
2018-05-23T02:17:54.946Z,1001.97
2018-05-23T02:18:35.468Z,1002.02
2018-05-23T02:19:15.998Z,1001.94
2018-05-23T02:19:56.528Z,1001.94
2018-05-23T02:20:37.076Z,1001.98
2018-05-23T02:21:17.598Z,1001.96
2018-05-23T02:21:58.124Z,1001.97
2018-05-23T02:22:38.654Z,1001.95
2018-05-23T02:23:19.191Z,1001.98
2018-05-23T02:23:59.713Z,1001.96
2018-05-23T02:24:40.232Z,1001.91
2018-05-23T02:25:20.756Z,1001.94
2018-05-23T02:26:01.280Z,1001.97
2018-05-23T02:26:41.813Z,1001.97
2018-05-23T02:27:22.324Z,1001.98
2018-05-23T02:28:02.853Z,1002
2018-05-23T02:28:43.381Z,1002.01
2018-05-23T02:29:23.901Z,1001.98
2018-05-23T02:30:04.427Z,1002
2018-05-23T02:30:44.949Z,1002
2018-05-23T02:31:25.467Z,1001.97
2018-05-23T02:32:05.985Z,1002.04
2018-05-23T02:32:46.503Z,1002.02
2018-05-23T02:33:27.022Z,1002.03
2018-05-23T02:34:07.537Z,1002.09
2018-05-23T02:34:48.058Z,1002.03
2018-05-23T02:35:28.581Z,1002.06
2018-05-23T02:36:09.100Z,1002.06
2018-05-23T02:36:49.629Z,1002.05
2018-05-23T02:37:30.132Z,1002.06
2018-05-23T02:38:10.654Z,1002.03
2018-05-23T02:38:51.174Z,1002.02
2018-05-23T02:39:31.696Z,1002.02
2018-05-23T02:40:12.223Z,1002.08
2018-05-23T02:40:52.743Z,1002.04
2018-05-23T02:41:33.262Z,1002.04
2018-05-23T02:42:13.786Z,1002.02
2018-05-23T02:42:54.294Z,1002.01
2018-05-23T02:43:34.826Z,1002.01
2018-05-23T02:44:15.336Z,1002.03
2018-05-23T02:44:55.866Z,1002
2018-05-23T02:45:36.383Z,1002.02
2018-05-23T02:46:16.911Z,1002.01
2018-05-23T02:46:57.481Z,1001.96
2018-05-23T02:47:37.983Z,1002
2018-05-23T02:48:18.496Z,1001.97
2018-05-23T02:48:59.017Z,1001.94
2018-05-23T02:49:39.554Z,1002.01
2018-05-23T02:50:20.830Z,1002
2018-05-23T02:51:01.355Z,1002.01
2018-05-23T02:51:41.877Z,1001.97
2018-05-23T02:52:22.398Z,1002
2018-05-23T02:53:02.921Z,1002
2018-05-23T02:53:43.455Z,1001.95
2018-05-23T02:54:24.000Z,1002
2018-05-23T02:55:04.512Z,1002.03
2018-05-23T02:55:45.029Z,1002.02
2018-05-23T02:56:25.557Z,1002.02
2018-05-23T02:57:06.077Z,1002.03
2018-05-23T02:57:46.606Z,1002.08
2018-05-23T02:58:27.129Z,1002.05
2018-05-23T02:59:07.657Z,1002.04
2018-05-23T02:59:48.178Z,1002.06
2018-05-23T03:00:28.703Z,1002.08
2018-05-23T03:01:09.224Z,1002.04
2018-05-23T03:01:49.758Z,1002.1
2018-05-23T03:02:30.274Z,1002.05
2018-05-23T03:03:10.796Z,1002.12
2018-05-23T03:03:51.331Z,1002.14
2018-05-23T03:04:31.859Z,1002.17
2018-05-23T03:05:12.380Z,1002.16
2018-05-23T03:05:52.911Z,1002.21
2018-05-23T03:06:33.429Z,1002.23
2018-05-23T03:07:13.945Z,1002.19
2018-05-23T03:07:54.467Z,1002.23
2018-05-23T03:08:34.988Z,1002.21
2018-05-23T03:09:15.500Z,1002.27
2018-05-23T03:09:56.038Z,1002.28
2018-05-23T03:10:36.560Z,1002.33
2018-05-23T03:11:17.083Z,1002.32
2018-05-23T03:11:57.635Z,1002.31
2018-05-23T03:12:38.154Z,1002.36
2018-05-23T03:13:18.678Z,1002.35
2018-05-23T03:13:59.199Z,1002.36
2018-05-23T03:14:39.730Z,1002.37
2018-05-23T03:15:20.258Z,1002.4
2018-05-23T03:16:00.827Z,1002.45
2018-05-23T03:16:41.301Z,1002.41
2018-05-23T03:17:21.841Z,1002.43
2018-05-23T03:18:02.363Z,1002.45
2018-05-23T03:18:42.876Z,1002.46
2018-05-23T03:19:23.405Z,1002.47
2018-05-23T03:20:03.945Z,1002.47
2018-05-23T03:20:44.486Z,1002.42
2018-05-23T03:21:24.998Z,1002.46
2018-05-23T03:22:05.559Z,1002.44
2018-05-23T03:22:46.043Z,1002.46
2018-05-23T03:23:26.591Z,1002.44
2018-05-23T03:24:07.104Z,1002.48
2018-05-23T03:24:47.634Z,1002.46
2018-05-23T03:25:28.144Z,1002.49
2018-05-23T03:26:08.664Z,1002.48
2018-05-23T03:26:49.190Z,1002.52
2018-05-23T03:27:29.713Z,1002.49
2018-05-23T03:28:10.247Z,1002.49
2018-05-23T03:28:50.768Z,1002.52
2018-05-23T03:29:31.284Z,1002.49
2018-05-23T03:30:11.809Z,1002.5
2018-05-23T03:30:52.334Z,1002.53
2018-05-23T03:31:32.867Z,1002.5
2018-05-23T03:32:13.393Z,1002.54
2018-05-23T03:32:53.930Z,1002.52
2018-05-23T03:33:34.451Z,1002.56
2018-05-23T03:34:14.993Z,1002.55
2018-05-23T03:34:55.548Z,1002.53
2018-05-23T03:35:36.084Z,1002.58
2018-05-23T03:36:16.603Z,1002.55
2018-05-23T03:36:57.117Z,1002.56
2018-05-23T03:37:37.641Z,1002.6
2018-05-23T03:38:18.140Z,1002.61
2018-05-23T03:38:58.656Z,1002.58
2018-05-23T03:39:39.182Z,1002.58
2018-05-23T03:40:19.697Z,1002.64
2018-05-23T03:41:00.220Z,1002.63
2018-05-23T03:41:40.748Z,1002.6
2018-05-23T03:42:21.269Z,1002.6
2018-05-23T03:43:01.786Z,1002.62
2018-05-23T03:43:42.308Z,1002.67
2018-05-23T03:44:22.839Z,1002.66
2018-05-23T03:45:03.369Z,1002.63
2018-05-23T03:45:43.888Z,1002.63
2018-05-23T03:46:24.432Z,1002.67
2018-05-23T03:47:04.944Z,1002.66
2018-05-23T03:47:45.481Z,1002.63
2018-05-23T03:48:26.008Z,1002.63
2018-05-23T03:49:06.527Z,1002.68
2018-05-23T03:49:47.069Z,1002.68
2018-05-23T03:50:27.600Z,1002.71
2018-05-23T03:51:08.128Z,1002.66
2018-05-23T03:51:48.639Z,1002.69
2018-05-23T03:52:29.175Z,1002.69
2018-05-23T03:53:09.695Z,1002.66
2018-05-23T03:53:50.228Z,1002.69
2018-05-23T03:54:30.737Z,1002.63
2018-05-23T03:55:11.266Z,1002.67
2018-05-23T03:55:51.794Z,1002.64
2018-05-23T03:56:32.310Z,1002.64
2018-05-23T03:57:12.842Z,1002.63
2018-05-23T03:57:53.356Z,1002.64
2018-05-23T03:58:33.888Z,1002.63
2018-05-23T03:59:14.412Z,1002.65
2018-05-23T03:59:54.942Z,1002.69
2018-05-23T04:00:35.461Z,1002.61
2018-05-23T04:01:16.055Z,1002.65
2018-05-23T04:01:56.515Z,1002.71
2018-05-23T04:02:37.065Z,1002.7
2018-05-23T04:03:17.565Z,1002.71
2018-05-23T04:03:58.085Z,1002.73
2018-05-23T04:04:38.604Z,1002.71
2018-05-23T04:05:19.126Z,1002.71
2018-05-23T04:05:59.650Z,1002.71
2018-05-23T04:06:40.182Z,1002.67
2018-05-23T04:07:20.700Z,1002.74
2018-05-23T04:08:01.224Z,1002.68
2018-05-23T04:08:41.748Z,1002.73
2018-05-23T04:09:22.271Z,1002.69
2018-05-23T04:10:02.786Z,1002.67
2018-05-23T04:10:43.318Z,1002.69
2018-05-23T04:11:23.834Z,1002.67
2018-05-23T04:12:04.380Z,1002.7
2018-05-23T04:12:44.889Z,1002.67
2018-05-23T04:13:25.405Z,1002.65
2018-05-23T04:14:05.939Z,1002.69
2018-05-23T04:14:46.467Z,1002.64
2018-05-23T04:15:27.003Z,1002.67
2018-05-23T04:16:07.502Z,1002.63
2018-05-23T04:16:48.032Z,1002.65
2018-05-23T04:17:28.552Z,1002.64
2018-05-23T04:18:09.076Z,1002.66
2018-05-23T04:18:49.590Z,1002.65
2018-05-23T04:19:30.122Z,1002.65
2018-05-23T04:20:10.638Z,1002.65
2018-05-23T04:20:51.157Z,1002.6
2018-05-23T04:21:31.683Z,1002.62
2018-05-23T04:22:12.215Z,1002.6
2018-05-23T04:22:52.737Z,1002.6
2018-05-23T04:23:33.262Z,1002.63
2018-05-23T04:24:13.779Z,1002.58
2018-05-23T04:24:54.354Z,1002.6
2018-05-23T04:25:34.826Z,1002.61
2018-05-23T04:26:15.344Z,1002.6
2018-05-23T04:26:55.863Z,1002.63
2018-05-23T04:27:36.414Z,1002.61
2018-05-23T04:28:16.911Z,1002.66
2018-05-23T04:28:57.438Z,1002.64
2018-05-23T04:29:37.958Z,1002.68
2018-05-23T04:30:18.476Z,1002.68
2018-05-23T04:30:58.996Z,1002.74
2018-05-23T04:31:39.532Z,1002.73
2018-05-23T04:32:20.063Z,1002.74
2018-05-23T04:33:00.584Z,1002.78
2018-05-23T04:33:41.105Z,1002.77
2018-05-23T04:34:21.622Z,1002.77
2018-05-23T04:35:02.135Z,1002.8
2018-05-23T04:35:42.653Z,1002.8
2018-05-23T04:36:23.181Z,1002.82
2018-05-23T04:37:03.711Z,1002.79
2018-05-23T04:37:44.228Z,1002.83
2018-05-23T04:38:24.752Z,1002.83
2018-05-23T04:39:05.275Z,1002.84
2018-05-23T04:39:45.820Z,1002.79
2018-05-23T04:40:26.335Z,1002.83
2018-05-23T04:41:06.859Z,1002.84
2018-05-23T04:41:47.385Z,1002.84
2018-05-23T04:42:27.917Z,1002.78
2018-05-23T04:43:08.442Z,1002.79
2018-05-23T04:43:48.966Z,1002.82
2018-05-23T04:44:29.495Z,1002.87
2018-05-23T04:45:10.036Z,1002.82
2018-05-23T04:45:50.554Z,1002.8
2018-05-23T04:46:31.090Z,1002.84
2018-05-23T04:47:11.625Z,1002.82
2018-05-23T04:47:52.162Z,1002.82
2018-05-23T04:48:32.680Z,1002.8
2018-05-23T04:49:13.205Z,1002.84
2018-05-23T04:49:53.722Z,1002.79
2018-05-23T04:50:34.231Z,1002.85
2018-05-23T04:51:14.767Z,1002.78
2018-05-23T04:51:55.282Z,1002.85
2018-05-23T04:52:35.805Z,1002.79
2018-05-23T04:53:16.324Z,1002.9
2018-05-23T04:53:56.844Z,1002.87
2018-05-23T04:54:37.361Z,1002.82
2018-05-23T04:55:17.879Z,1002.9
2018-05-23T04:55:58.404Z,1002.89
2018-05-23T04:56:38.931Z,1002.94
2018-05-23T04:57:19.454Z,1002.98
2018-05-23T04:57:59.982Z,1002.97
2018-05-23T04:58:40.499Z,1003
2018-05-23T04:59:21.031Z,1003.02
2018-05-23T05:00:01.560Z,1003.07
2018-05-23T05:00:42.067Z,1003.04
2018-05-23T05:01:22.600Z,1003.03
2018-05-23T05:02:03.128Z,1003.03
2018-05-23T05:02:43.670Z,1002.97
2018-05-23T05:03:24.194Z,1002.96
2018-05-23T05:04:04.707Z,1002.97
2018-05-23T05:04:45.229Z,1002.94
2018-05-23T05:05:25.751Z,1002.97
2018-05-23T05:06:06.280Z,1002.94
2018-05-23T05:06:46.815Z,1003
2018-05-23T05:07:27.345Z,1003.03
2018-05-23T05:08:07.859Z,1003
2018-05-23T05:08:48.385Z,1003.05
2018-05-23T05:09:28.908Z,1003.02
2018-05-23T05:10:09.433Z,1003.02
2018-05-23T05:10:49.948Z,1003.02
2018-05-23T05:11:30.464Z,1003.05
2018-05-23T05:12:10.995Z,1003.04
2018-05-23T05:12:51.537Z,1003.06
2018-05-23T05:13:32.050Z,1003.05
2018-05-23T05:14:12.573Z,1003.07
2018-05-23T05:14:53.082Z,1003.05
2018-05-23T05:15:33.614Z,1003.07
2018-05-23T05:16:14.158Z,1003.06
2018-05-23T05:16:54.696Z,1003.13
2018-05-23T05:17:35.217Z,1003.1
2018-05-23T05:18:15.744Z,1003.11
2018-05-23T05:18:56.259Z,1003.12
2018-05-23T05:19:36.888Z,1003.08
2018-05-23T05:20:17.315Z,1003.17
2018-05-23T05:20:57.829Z,1003.19
2018-05-23T05:21:38.346Z,1003.13
2018-05-23T05:22:18.859Z,1003.2
2018-05-23T05:22:59.372Z,1003.21
2018-05-23T05:23:39.887Z,1003.19
2018-05-23T05:24:20.407Z,1003.24
2018-05-23T05:25:01.060Z,1003.23
2018-05-23T05:25:41.458Z,1003.27
2018-05-23T05:26:22.010Z,1003.25
2018-05-23T05:27:02.510Z,1003.27
2018-05-23T05:27:43.053Z,1003.29
2018-05-23T05:28:23.542Z,1003.3
2018-05-23T05:29:04.053Z,1003.3
2018-05-23T05:29:44.582Z,1003.29
2018-05-23T05:30:25.102Z,1003.27
2018-05-23T05:31:05.625Z,1003.3
2018-05-23T05:31:46.226Z,1003.27
2018-05-23T05:32:26.662Z,1003.27
2018-05-23T05:33:07.177Z,1003.23
2018-05-23T05:33:47.707Z,1003.27
2018-05-23T05:34:28.226Z,1003.28
2018-05-23T05:35:08.741Z,1003.27
2018-05-23T05:35:49.283Z,1003.25
2018-05-23T05:36:29.809Z,1003.29
2018-05-23T05:37:10.317Z,1003.31
2018-05-23T05:37:50.835Z,1003.28
2018-05-23T05:38:31.355Z,1003.33
2018-05-23T05:39:11.882Z,1003.39
2018-05-23T05:39:52.415Z,1003.42
2018-05-23T05:40:32.947Z,1003.44
2018-05-23T05:41:13.471Z,1003.41
2018-05-23T05:41:53.989Z,1003.44
2018-05-23T05:42:34.524Z,1003.44
2018-05-23T05:43:15.044Z,1003.48
2018-05-23T05:43:55.582Z,1003.46
2018-05-23T05:44:36.101Z,1003.46
2018-05-23T05:45:16.614Z,1003.5
2018-05-23T05:45:57.148Z,1003.46
2018-05-23T05:46:37.680Z,1003.47
2018-05-23T05:47:18.206Z,1003.45
2018-05-23T05:47:58.738Z,1003.47
2018-05-23T05:48:39.267Z,1003.51
2018-05-23T05:49:19.787Z,1003.52
2018-05-23T05:50:00.306Z,1003.5
2018-05-23T05:50:40.805Z,1003.52
2018-05-23T05:51:21.326Z,1003.55
2018-05-23T05:52:01.854Z,1003.56
2018-05-23T05:52:42.389Z,1003.57
2018-05-23T05:53:22.903Z,1003.58
2018-05-23T05:54:03.430Z,1003.58
2018-05-23T05:54:43.939Z,1003.63
2018-05-23T05:55:24.456Z,1003.62
2018-05-23T05:56:04.968Z,1003.63
2018-05-23T05:56:45.478Z,1003.64
2018-05-23T05:57:25.994Z,1003.69
2018-05-23T05:58:06.535Z,1003.64
2018-05-23T05:58:47.056Z,1003.65
2018-05-23T05:59:27.588Z,1003.7
2018-05-23T06:00:08.182Z,1003.67
2018-05-23T06:00:48.702Z,1003.72
2018-05-23T06:01:29.226Z,1003.71
2018-05-23T06:02:09.751Z,1003.72
2018-05-23T06:02:50.265Z,1003.72
2018-05-23T06:03:30.787Z,1003.76
2018-05-23T06:04:11.315Z,1003.74
2018-05-23T06:04:51.834Z,1003.68
2018-05-23T06:05:32.383Z,1003.71
2018-05-23T06:07:30.711Z,1003.68
2018-05-23T06:08:11.236Z,1003.69
2018-05-23T06:08:51.761Z,1003.66
2018-05-23T06:09:32.355Z,1003.69
2018-05-23T06:10:12.820Z,1003.7
2018-05-23T06:10:53.347Z,1003.72
2018-05-23T06:11:33.888Z,1003.69
2018-05-23T06:12:14.388Z,1003.67
2018-05-23T06:12:54.897Z,1003.68
2018-05-23T06:13:35.417Z,1003.7
2018-05-23T06:14:15.931Z,1003.76
2018-05-23T06:14:56.447Z,1003.73
2018-05-23T06:15:36.980Z,1003.72
2018-05-23T06:16:17.483Z,1003.77
2018-05-23T06:16:58.003Z,1003.79
2018-05-23T06:17:38.525Z,1003.77
2018-05-23T06:18:19.039Z,1003.76
2018-05-23T06:18:59.545Z,1003.77
2018-05-23T06:19:40.073Z,1003.79
2018-05-23T06:20:20.588Z,1003.86
2018-05-23T06:21:01.104Z,1003.8
2018-05-23T06:21:41.645Z,1003.83
2018-05-23T06:22:22.164Z,1003.88
2018-05-23T06:23:02.646Z,1003.88
2018-05-23T06:23:43.169Z,1003.88
2018-05-23T06:24:23.698Z,1003.89
2018-05-23T06:25:04.219Z,1003.9
2018-05-23T06:25:44.725Z,1003.89
2018-05-23T06:26:25.250Z,1003.91
2018-05-23T06:27:05.763Z,1003.92
2018-05-23T06:27:46.312Z,1003.93
2018-05-23T06:28:26.844Z,1003.89
2018-05-23T06:29:07.375Z,1003.94
2018-05-23T06:29:47.900Z,1003.97
2018-05-23T06:30:28.542Z,1003.93
2018-05-23T06:31:08.947Z,1003.99
2018-05-23T06:31:49.470Z,1004.01
2018-05-23T06:32:30.007Z,1004
2018-05-23T06:33:10.526Z,1003.95
2018-05-23T06:33:51.042Z,1003.96
2018-05-23T06:34:31.563Z,1004.01
2018-05-23T06:35:12.127Z,1003.97
2018-05-23T06:35:52.601Z,1004.01
2018-05-23T06:36:33.115Z,1004.04
2018-05-23T06:37:13.678Z,1004.05
2018-05-23T06:37:54.276Z,1004.01
2018-05-23T06:38:34.731Z,1004.05
2018-05-23T06:39:15.252Z,1004.08
2018-05-23T06:39:55.774Z,1004.07
2018-05-23T06:40:36.294Z,1004.05
2018-05-23T06:41:16.818Z,1004.1
2018-05-23T06:41:57.334Z,1004.09
2018-05-23T06:42:37.852Z,1004.06
2018-05-23T06:43:18.394Z,1004.11
2018-05-23T06:43:58.911Z,1004.1
2018-05-23T06:44:39.421Z,1004.12
2018-05-23T06:45:19.936Z,1004.11
2018-05-23T06:46:00.454Z,1004.15
2018-05-23T06:46:40.976Z,1004.13
2018-05-23T06:47:21.496Z,1004.15
2018-05-23T06:48:02.102Z,1004.13
2018-05-23T06:48:42.568Z,1004.13
2018-05-23T06:49:23.090Z,1004.12
2018-05-23T06:50:03.726Z,1004.15
2018-05-23T06:50:44.120Z,1004.1
2018-05-23T06:51:24.733Z,1004.13
2018-05-23T06:52:05.151Z,1004.14
2018-05-23T06:52:45.701Z,1004.17
2018-05-23T06:53:26.234Z,1004.15
2018-05-23T06:54:06.754Z,1004.14
2018-05-23T06:54:47.270Z,1004.17
2018-05-23T06:55:27.843Z,1004.17
2018-05-23T06:56:08.307Z,1004.17
2018-05-23T06:56:48.829Z,1004.19
2018-05-23T06:57:29.334Z,1004.22
2018-05-23T06:58:09.849Z,1004.2
2018-05-23T06:58:50.377Z,1004.2
2018-05-23T06:59:30.896Z,1004.24
2018-05-23T07:00:11.409Z,1004.23
2018-05-23T07:00:51.956Z,1004.27
2018-05-23T07:01:32.488Z,1004.26
2018-05-23T07:02:13.018Z,1004.26
2018-05-23T07:02:53.538Z,1004.33
2018-05-23T07:03:34.058Z,1004.27
2018-05-23T07:04:14.581Z,1004.34
2018-05-23T07:04:55.119Z,1004.34
2018-05-23T07:05:35.645Z,1004.32
2018-05-23T07:06:16.154Z,1004.33
2018-05-23T07:06:56.685Z,1004.31
2018-05-23T07:07:37.223Z,1004.32
2018-05-23T07:08:17.755Z,1004.35
2018-05-23T07:08:58.299Z,1004.37
2018-05-23T07:09:38.820Z,1004.38
2018-05-23T07:10:19.356Z,1004.37
2018-05-23T07:10:59.880Z,1004.37
2018-05-23T07:11:40.399Z,1004.38
2018-05-23T07:12:20.930Z,1004.36
2018-05-23T07:13:01.467Z,1004.42
2018-05-23T07:13:42.022Z,1004.44
2018-05-23T07:14:22.554Z,1004.45
2018-05-23T07:15:03.086Z,1004.43
2018-05-23T07:15:43.604Z,1004.47
2018-05-23T07:16:24.161Z,1004.45
2018-05-23T07:17:04.613Z,1004.45
2018-05-23T07:17:45.197Z,1004.52
2018-05-23T07:18:25.646Z,1004.47
2018-05-23T07:19:06.174Z,1004.56
2018-05-23T07:19:46.685Z,1004.56
2018-05-23T07:20:27.210Z,1004.52
2018-05-23T07:21:07.727Z,1004.55
2018-05-23T07:21:48.250Z,1004.58
2018-05-23T07:22:28.766Z,1004.56
2018-05-23T07:23:09.318Z,1004.63
2018-05-23T07:23:49.820Z,1004.63
2018-05-23T07:24:30.350Z,1004.64
2018-05-23T07:25:10.868Z,1004.65
2018-05-23T07:25:51.396Z,1004.67
2018-05-23T07:26:31.902Z,1004.68
2018-05-23T07:27:12.418Z,1004.67
2018-05-23T07:27:52.939Z,1004.69
2018-05-23T07:28:33.453Z,1004.68
2018-05-23T07:29:13.991Z,1004.7
2018-05-23T07:29:54.506Z,1004.68
2018-05-23T07:30:35.026Z,1004.69
2018-05-23T07:31:15.556Z,1004.74
2018-05-23T07:31:56.070Z,1004.74
2018-05-23T07:32:36.589Z,1004.7
2018-05-23T07:33:17.130Z,1004.76
2018-05-23T07:33:57.663Z,1004.76
2018-05-23T07:34:38.188Z,1004.73
2018-05-23T07:35:18.695Z,1004.72
2018-05-23T07:35:59.212Z,1004.75
2018-05-23T07:36:39.744Z,1004.78
2018-05-23T07:37:20.268Z,1004.72
2018-05-23T07:38:00.833Z,1004.75
2018-05-23T07:38:41.363Z,1004.74
2018-05-23T07:39:21.885Z,1004.79
2018-05-23T07:40:02.402Z,1004.78
2018-05-23T07:40:42.931Z,1004.74
2018-05-23T07:41:23.444Z,1004.74
2018-05-23T07:42:03.960Z,1004.77
2018-05-23T07:42:44.514Z,1004.77
2018-05-23T07:43:25.034Z,1004.77
2018-05-23T07:44:05.557Z,1004.81
2018-05-23T07:44:46.086Z,1004.78
2018-05-23T07:45:26.604Z,1004.81
2018-05-23T07:46:07.126Z,1004.83
2018-05-23T07:46:47.639Z,1004.81
2018-05-23T07:47:28.160Z,1004.8
2018-05-23T07:48:08.688Z,1004.82
2018-05-23T07:48:49.214Z,1004.81
2018-05-23T07:49:29.751Z,1004.83
2018-05-23T07:50:10.278Z,1004.82
2018-05-23T07:50:50.815Z,1004.82
2018-05-23T07:51:31.343Z,1004.88
2018-05-23T07:52:11.859Z,1004.84
2018-05-23T07:52:52.377Z,1004.83
2018-05-23T07:53:32.903Z,1004.82
2018-05-23T07:54:13.417Z,1004.84
2018-05-23T07:54:53.944Z,1004.82
2018-05-23T07:55:34.460Z,1004.84
2018-05-23T07:56:14.993Z,1004.83
2018-05-23T07:56:55.525Z,1004.84
2018-05-23T07:57:36.037Z,1004.83
2018-05-23T07:58:16.570Z,1004.81
2018-05-23T07:58:57.095Z,1004.82
2018-05-23T07:59:37.622Z,1004.82
2018-05-23T08:00:18.134Z,1004.79
2018-05-23T08:00:58.656Z,1004.86
2018-05-23T08:01:39.188Z,1004.79
2018-05-23T08:02:19.713Z,1004.78
2018-05-23T08:03:00.237Z,1004.84
2018-05-23T08:03:40.757Z,1004.84
2018-05-23T08:04:21.280Z,1004.87
2018-05-23T08:05:01.808Z,1004.84
2018-05-23T08:05:42.334Z,1004.86
2018-05-23T08:06:22.858Z,1004.85
2018-05-23T08:07:03.376Z,1004.86
2018-05-23T08:07:43.900Z,1004.85
2018-05-23T08:08:24.515Z,1004.89
2018-05-23T08:09:05.019Z,1004.85
2018-05-23T08:09:45.545Z,1004.9
2018-05-23T08:10:26.057Z,1004.87
2018-05-23T08:11:06.589Z,1004.91
2018-05-23T08:11:47.117Z,1004.86
2018-05-23T08:12:27.697Z,1004.86
2018-05-23T08:13:08.238Z,1004.83
2018-05-23T08:13:48.760Z,1004.88